Time;durP1;ratioP1;P1;durP2;ratioP2;P2;SDS_P1;SDS_P2;PMS_P1;PMS_P2;Temp;Humidity;BMP_temperature;BMP_pressure;BME280_temperature;BME280_humidity;BME280_pressure;Samples;Min_cycle;Max_cycle;Signal;HPM_P1;HPM_P2
2022/05/06 00:04:15;;;;;;;14.93;4.43;;;;;;;;;;10405512;28;20025;-51
2022/05/06 00:09:15;;;;;;;5.68;3.75;;;;;;;;;;10407534;28;20084;-50
2022/05/06 00:14:16;;;;;;;5.68;3.72;;;;;;;;;;10410858;28;20052;-50
2022/05/06 00:19:16;;;;;;;6.32;3.50;;;;;;;;;;10416084;28;20060;-49
2022/05/06 00:24:17;;;;;;;10.73;3.28;;;;;;;;;;10415453;28;20026;-52
2022/05/06 00:29:18;;;;;;;9.00;3.80;;;;;;;;;;10415968;28;20511;-50
2022/05/06 00:34:18;;;;;;;5.72;3.42;;;;;;;;;;10415659;28;20382;-50
2022/05/06 00:39:20;;;;;;;9.23;3.72;;;;;;;;;;10415053;28;20132;-48
2022/05/06 00:44:22;;;;;;;7.18;3.55;;;;;;;;;;10414400;28;20050;-49
2022/05/06 00:49:23;;;;;;;4.65;3.05;;;;;;;;;;10439982;28;20060;-50
2022/05/06 00:54:24;;;;;;;5.13;3.70;;;;;;;;;;10454145;28;20021;-52
2022/05/06 00:59:24;;;;;;;5.30;3.05;;;;;;;;;;10395141;28;20030;-49
2022/05/06 01:04:25;;;;;;;6.60;3.20;;;;;;;;;;10406224;28;20029;-49
2022/05/06 01:09:25;;;;;;;6.65;3.42;;;;;;;;;;10421251;28;20052;-48
2022/05/06 01:14:33;;;;;;;5.65;3.53;;;;;;;;;;10414500;28;20107;-49
2022/05/06 01:19:35;;;;;;;5.40;3.77;;;;;;;;;;10406921;28;20481;-49
2022/05/06 01:24:35;;;;;;;6.75;3.70;;;;;;;;;;10412647;28;20026;-48
2022/05/06 01:29:38;;;;;;;12.57;3.85;;;;;;;;;;10413480;28;20021;-50
2022/05/06 01:34:40;;;;;;;5.55;3.22;;;;;;;;;;10413380;28;20099;-50
2022/05/06 01:39:42;;;;;;;5.07;3.10;;;;;;;;;;10411962;28;20034;-49
2022/05/06 01:44:47;;;;;;;6.60;3.10;;;;;;;;;;10412078;28;20060;-50
2022/05/06 01:49:49;;;;;;;3.65;2.88;;;;;;;;;;10427719;28;20107;-49
2022/05/06 01:54:50;;;;;;;7.20;3.35;;;;;;;;;;10437991;28;20023;-50
2022/05/06 01:59:51;;;;;;;4.07;3.08;;;;;;;;;;10418015;28;20500;-50
2022/05/06 02:10:11;;;;;;;3.67;2.95;;;;;;;;;;10411625;28;20034;-49
2022/05/06 02:15:13;;;;;;;6.70;3.17;;;;;;;;;;10411557;28;20029;-49
2022/05/06 02:20:14;;;;;;;7.38;3.30;;;;;;;;;;10411334;28;20040;-49
2022/05/06 02:25:14;;;;;;;5.85;3.10;;;;;;;;;;10411178;28;20392;-50
2022/05/06 02:35:34;;;;;;;4.10;3.03;;;;;;;;;;10369800;28;20462;-49
2022/05/06 02:40:37;;;;;;;5.82;3.10;;;;;;;;;;10370261;28;20038;-50
2022/05/06 02:45:37;;;;;;;5.43;2.90;;;;;;;;;;10408887;28;20136;-49
2022/05/06 02:50:38;;;;;;;2.97;2.63;;;;;;;;;;10411317;28;20041;-51
2022/05/06 02:55:39;;;;;;;3.78;3.03;;;;;;;;;;10426507;28;20036;-52
2022/05/06 03:00:39;;;;;;;4.40;3.35;;;;;;;;;;10423501;28;20037;-49
2022/05/06 03:05:40;;;;;;;4.45;3.03;;;;;;;;;;10409848;28;20045;-50
2022/05/06 03:10:41;;;;;;;3.40;2.83;;;;;;;;;;10409599;28;20045;-50
2022/05/06 03:15:42;;;;;;;5.18;3.28;;;;;;;;;;10408822;28;20049;-49
2022/05/06 03:20:44;;;;;;;4.78;3.03;;;;;;;;;;10427001;28;20041;-51
2022/05/06 03:25:44;;;;;;;4.05;3.25;;;;;;;;;;10427814;28;20044;-51
2022/05/06 03:30:45;;;;;;;3.13;2.60;;;;;;;;;;10409250;28;20033;-50
2022/05/06 03:35:46;;;;;;;7.00;2.72;;;;;;;;;;10409119;28;20619;-50
2022/05/06 03:40:46;;;;;;;4.13;3.15;;;;;;;;;;10408638;28;20033;-51
2022/05/06 03:45:47;;;;;;;6.95;3.20;;;;;;;;;;10408420;28;20033;-50
2022/05/06 03:56:07;;;;;;;5.45;3.08;;;;;;;;;;10428048;28;20029;-50
2022/05/06 04:01:08;;;;;;;3.22;2.92;;;;;;;;;;10449660;28;20025;-51
2022/05/06 04:06:08;;;;;;;3.05;2.47;;;;;;;;;;10414229;28;20087;-49
2022/05/06 04:11:13;;;;;;;4.00;2.50;;;;;;;;;;10408363;28;20021;-49
2022/05/06 04:16:14;;;;;;;4.95;3.25;;;;;;;;;;10407478;28;20053;-50
2022/05/06 04:26:33;;;;;;;5.10;2.95;;;;;;;;;;10407816;28;20489;-50
2022/05/06 04:31:35;;;;;;;4.72;2.85;;;;;;;;;;10407974;28;20030;-50
2022/05/06 04:36:40;;;;;;;4.47;2.70;;;;;;;;;;10392480;28;20026;-52
2022/05/06 04:41:41;;;;;;;2.72;2.53;;;;;;;;;;10366461;28;20038;-51
2022/05/06 04:46:41;;;;;;;2.85;2.58;;;;;;;;;;10398635;28;20393;-53
2022/05/06 04:51:42;;;;;;;6.97;2.55;;;;;;;;;;10397623;28;20037;-53
2022/05/06 04:56:42;;;;;;;3.88;2.72;;;;;;;;;;10400848;28;20026;-48
2022/05/06 05:01:43;;;;;;;3.47;2.55;;;;;;;;;;10372359;28;20109;-51
2022/05/06 05:06:45;;;;;;;3.38;2.80;;;;;;;;;;10374351;28;20519;-48
2022/05/06 05:11:45;;;;;;;3.95;2.78;;;;;;;;;;10371409;28;20464;-49
2022/05/06 05:16:48;;;;;;;4.03;2.83;;;;;;;;;;10374348;28;20096;-48
2022/05/06 05:21:49;;;;;;;2.88;2.47;;;;;;;;;;10395994;28;20602;-50
2022/05/06 05:26:50;;;;;;;3.00;2.50;;;;;;;;;;10411768;28;20029;-48
2022/05/06 05:31:52;;;;;;;3.10;2.80;;;;;;;;;;10404858;28;20033;-48
2022/05/06 05:36:52;;;;;;;2.85;2.42;;;;;;;;;;10394359;28;20038;-50
2022/05/06 05:41:53;;;;;;;2.90;2.60;;;;;;;;;;10397132;28;20033;-49
2022/05/06 05:52:13;;;;;;;3.78;2.70;;;;;;;;;;10413086;28;20037;-50
2022/05/06 05:57:14;;;;;;;5.40;3.03;;;;;;;;;;10430802;28;20392;-51
2022/05/06 06:02:16;;;;;;;2.80;2.60;;;;;;;;;;10412198;28;20029;-47
2022/05/06 06:07:18;;;;;;;4.47;2.65;;;;;;;;;;10411746;28;20041;-48
2022/05/06 06:12:18;;;;;;;3.78;2.80;;;;;;;;;;10410899;28;20041;-47
2022/05/06 06:17:19;;;;;;;4.70;2.47;;;;;;;;;;10411872;28;20045;-48
2022/05/06 06:22:19;;;;;;;3.78;2.53;;;;;;;;;;10411625;28;20033;-48
2022/05/06 06:27:20;;;;;;;2.95;2.60;;;;;;;;;;10411396;28;20033;-47
2022/05/06 06:32:21;;;;;;;2.75;2.28;;;;;;;;;;10411122;28;20041;-48
2022/05/06 06:37:22;;;;;;;2.50;2.30;;;;;;;;;;10411164;28;20032;-48
2022/05/06 06:42:23;;;;;;;3.38;2.72;;;;;;;;;;10411194;28;20033;-48
2022/05/06 06:47:24;;;;;;;2.90;2.20;;;;;;;;;;10410230;28;20487;-49
2022/05/06 06:52:24;;;;;;;7.07;2.83;;;;;;;;;;10410787;28;20040;-50
2022/05/06 06:57:26;;;;;;;2.50;2.30;;;;;;;;;;10440904;28;20067;-49
2022/05/06 07:02:27;;;;;;;3.38;2.55;;;;;;;;;;10452014;28;20021;-48
2022/05/06 07:12:47;;;;;;;5.00;2.38;;;;;;;;;;10410521;28;20030;-48
2022/05/06 07:17:48;;;;;;;2.55;2.35;;;;;;;;;;10409208;28;20049;-50
2022/05/06 07:22:48;;;;;;;2.72;2.53;;;;;;;;;;10409460;28;20033;-50
2022/05/06 07:27:49;;;;;;;3.75;2.50;;;;;;;;;;10409166;28;20099;-48
2022/05/06 07:32:49;;;;;;;2.22;2.10;;;;;;;;;;10409269;28;20017;-48
2022/05/06 07:37:50;;;;;;;2.78;2.55;;;;;;;;;;10408822;28;20037;-47
2022/05/06 07:42:51;;;;;;;3.00;2.20;;;;;;;;;;10408772;28;20034;-48
2022/05/06 07:47:52;;;;;;;2.60;2.40;;;;;;;;;;10408742;28;20040;-48
2022/05/06 07:52:53;;;;;;;2.85;2.40;;;;;;;;;;10408668;28;20037;-48
2022/05/06 07:57:54;;;;;;;2.63;2.42;;;;;;;;;;10443302;28;20044;-47
2022/05/06 08:08:14;;;;;;;2.65;2.45;;;;;;;;;;10408331;28;20576;-48
2022/05/06 08:13:15;;;;;;;4.05;2.67;;;;;;;;;;10407997;28;20033;-48
2022/05/06 08:18:16;;;;;;;2.85;2.40;;;;;;;;;;10407455;28;20049;-48
2022/05/06 08:23:16;;;;;;;2.58;2.38;;;;;;;;;;10408275;28;20132;-50
2022/05/06 08:28:19;;;;;;;3.17;2.25;;;;;;;;;;10422954;28;20572;-49
2022/05/06 08:33:21;;;;;;;2.95;2.38;;;;;;;;;;10401353;28;20638;-48
2022/05/06 08:38:22;;;;;;;3.75;2.45;;;;;;;;;;10415192;28;20041;-48
2022/05/06 08:43:23;;;;;;;3.05;2.30;;;;;;;;;;10408435;28;20034;-48
2022/05/06 08:53:45;;;;;;;4.88;2.40;;;;;;;;;;10416420;28;20033;-51
2022/05/06 08:58:46;;;;;;;4.68;2.10;;;;;;;;;;10418046;28;20029;-48
2022/05/06 09:03:48;;;;;;;7.68;2.28;;;;;;;;;;10414953;28;20028;-51
2022/05/06 09:08:52;;;;;;;2.53;2.30;;;;;;;;;;10414414;28;20109;-49
2022/05/06 09:13:55;;;;;;;3.00;2.30;;;;;;;;;;10414545;28;20080;-47
2022/05/06 09:19:11;;;;;;;2.33;2.13;;;;;;;;;;10413246;28;20053;-49
2022/05/06 09:24:17;;;;;;;4.03;2.65;;;;;;;;;;10412108;28;20040;-49
2022/05/06 09:29:42;;;;;;;11.55;2.92;;;;;;;;;;10412009;28;20090;-50
2022/05/06 09:34:45;;;;;;;4.68;2.72;;;;;;;;;;10408197;28;20040;-51
2022/05/06 09:39:47;;;;;;;4.47;2.60;;;;;;;;;;10412932;28;20488;-52
2022/05/06 09:44:48;;;;;;;3.22;2.17;;;;;;;;;;10411963;28;20095;-47
2022/05/06 09:49:49;;;;;;;6.18;2.55;;;;;;;;;;10413952;28;20030;-50
2022/05/06 09:54:50;;;;;;;13.68;3.35;;;;;;;;;;10409456;28;20543;-50
2022/05/06 09:59:51;;;;;;;6.18;2.28;;;;;;;;;;10410826;28;20083;-49
2022/05/06 10:04:54;;;;;;;3.80;2.63;;;;;;;;;;10402418;28;20502;-49
2022/05/06 10:10:02;;;;;;;3.83;2.85;;;;;;;;;;10411042;28;20040;-50
2022/05/06 10:15:08;;;;;;;7.78;3.10;;;;;;;;;;10463371;28;20057;-50
2022/05/06 10:20:09;;;;;;;6.82;2.58;;;;;;;;;;10410952;28;20033;-51
2022/05/06 10:25:42;;;;;;;6.57;3.10;;;;;;;;;;10410845;28;20029;-52
2022/05/06 10:36:46;;;;;;;5.20;3.47;;;;;;;;;;10383603;28;20393;-57
2022/05/06 10:42:12;;;;;;;6.25;3.15;;;;;;;;;;10410908;28;20055;-56
2022/05/06 10:47:13;;;;;;;6.93;3.00;;;;;;;;;;10410718;28;20029;-51
2022/05/06 10:52:16;;;;;;;5.45;3.13;;;;;;;;;;10410867;28;20032;-53
2022/05/06 10:57:22;;;;;;;8.65;3.58;;;;;;;;;;10426057;28;20362;-53
2022/05/06 11:02:26;;;;;;;8.82;3.15;;;;;;;;;;10411452;28;20049;-53
2022/05/06 11:07:29;;;;;;;6.80;2.97;;;;;;;;;;10411715;28;20025;-53
2022/05/06 11:12:37;;;;;;;7.38;3.20;;;;;;;;;;10403558;28;20029;-55
2022/05/06 11:17:38;;;;;;;;;;;;;;;;;;10419443;28;20049;-53
2022/05/06 11:22:52;;;;;;;5.85;2.47;;;;;;;;;;10402420;28;19923;-54
2022/05/06 11:27:55;;;;;;;5.57;2.70;;;;;;;;;;10410812;28;20033;-52
2022/05/06 11:33:02;;;;;;;4.88;2.90;;;;;;;;;;10408400;28;20099;-53
2022/05/06 11:38:03;;;;;;;4.63;2.92;;;;;;;;;;10407116;28;20025;-58
2022/05/06 11:43:07;;;;;;;4.70;2.65;;;;;;;;;;10405994;28;20091;-57
2022/05/06 11:48:13;;;;;;;4.93;2.53;;;;;;;;;;10409609;28;20060;-60
2022/05/06 11:53:17;;;;;;;3.88;2.50;;;;;;;;;;10408171;28;20030;-61
2022/05/06 11:58:18;;;;;;;4.35;2.95;;;;;;;;;;10416177;28;20048;-59
2022/05/06 12:03:19;;;;;;;3.15;2.53;;;;;;;;;;10406517;28;20029;-61
2022/05/06 12:08:28;;;;;;;5.07;2.70;;;;;;;;;;10405286;28;20026;-61
2022/05/06 12:13:40;;;;;;;4.05;2.80;;;;;;;;;;10414623;28;20025;-56
2022/05/06 12:18:53;;;;;;;3.47;2.63;;;;;;;;;;10414402;28;20056;-61
2022/05/06 12:23:59;;;;;;;3.78;2.55;;;;;;;;;;10412355;28;20393;-61
2022/05/06 12:29:02;;;;;;;8.25;2.88;;;;;;;;;;10424542;28;20037;-61
2022/05/06 12:34:10;;;;;;;6.47;2.65;;;;;;;;;;10417995;28;20116;-55
2022/05/06 12:39:23;;;;;;;10.97;3.13;;;;;;;;;;10415005;28;20026;-56
2022/05/06 12:44:27;;;;;;;4.93;2.92;;;;;;;;;;10412926;28;20087;-54
2022/05/06 12:49:40;;;;;;;4.35;3.05;;;;;;;;;;10413019;28;20049;-56
2022/05/06 12:54:41;;;;;;;9.75;2.67;;;;;;;;;;10423979;28;20025;-56
2022/05/06 12:59:41;;;;;;;4.93;2.97;;;;;;;;;;10426426;28;20070;-53
2022/05/06 13:04:42;;;;;;;5.65;2.78;;;;;;;;;;10414826;28;20021;-57
2022/05/06 13:09:43;;;;;;;7.18;2.97;;;;;;;;;;10414451;28;20160;-56
2022/05/06 13:14:44;;;;;;;4.40;2.65;;;;;;;;;;10413367;28;20079;-56
2022/05/06 13:19:44;;;;;;;4.68;2.72;;;;;;;;;;10413586;28;20041;-47
2022/05/06 13:24:45;;;;;;;2.97;2.67;;;;;;;;;;10413328;28;20128;-47
2022/05/06 13:29:45;;;;;;;5.72;3.10;;;;;;;;;;10413411;28;20029;-50
2022/05/06 13:34:46;;;;;;;4.30;2.50;;;;;;;;;;10413617;28;20029;-56
2022/05/06 13:39:46;;;;;;;3.83;2.67;;;;;;;;;;10413668;28;20030;-56
2022/05/06 13:44:47;;;;;;;5.00;3.10;;;;;;;;;;10421462;28;20606;-56
2022/05/06 13:49:49;;;;;;;3.30;2.72;;;;;;;;;;10417669;28;20022;-56
2022/05/06 13:54:49;;;;;;;9.85;2.78;;;;;;;;;;10400795;28;20026;-56
2022/05/06 13:59:50;;;;;;;4.75;2.67;;;;;;;;;;10371875;28;20034;-56
2022/05/06 14:04:50;;;;;;;4.88;2.80;;;;;;;;;;10371634;28;20177;-56
2022/05/06 14:09:51;;;;;;;3.45;2.60;;;;;;;;;;10367226;28;20473;-57
2022/05/06 14:14:52;;;;;;;2.60;2.22;;;;;;;;;;10366621;28;20618;-51
2022/05/06 14:19:53;;;;;;;3.97;2.45;;;;;;;;;;10384241;28;20525;-48
2022/05/06 14:24:53;;;;;;;2.85;2.28;;;;;;;;;;10375182;28;20037;-50
2022/05/06 14:29:54;;;;;;;5.95;2.60;;;;;;;;;;10396052;28;20444;-53
2022/05/06 14:35:16;;;;;;;4.40;2.17;;;;;;;;;;10358305;28;20029;-49
2022/05/06 14:40:19;;;;;;;4.40;2.85;;;;;;;;;;10355005;28;20115;-54
2022/05/06 14:45:20;;;;;;;4.93;2.83;;;;;;;;;;10333922;28;20041;-48
2022/05/06 14:50:21;;;;;;;3.03;2.40;;;;;;;;;;10332552;28;20029;-49
2022/05/06 14:55:22;;;;;;;5.40;2.70;;;;;;;;;;10338083;28;20121;-52
2022/05/06 15:00:23;;;;;;;4.43;2.90;;;;;;;;;;10337566;28;20044;-50
2022/05/06 15:05:23;;;;;;;7.25;2.90;;;;;;;;;;10327849;28;20035;-49
2022/05/06 15:10:24;;;;;;;5.68;3.00;;;;;;;;;;10338738;28;20128;-48
2022/05/06 15:15:24;;;;;;;7.32;2.50;;;;;;;;;;10344888;28;20077;-54
2022/05/06 15:20:25;;;;;;;5.60;2.72;;;;;;;;;;10341805;28;20042;-52
2022/05/06 15:25:26;;;;;;;8.27;2.30;;;;;;;;;;10368577;28;20045;-54
2022/05/06 15:30:26;;;;;;;6.20;2.75;;;;;;;;;;10368467;28;20109;-51
2022/05/06 15:35:27;;;;;;;3.88;2.40;;;;;;;;;;10367911;28;20088;-55
2022/05/06 15:40:30;;;;;;;8.18;2.85;;;;;;;;;;10328898;28;20057;-54
2022/05/06 15:45:32;;;;;;;4.20;2.88;;;;;;;;;;10354112;28;20107;-55
2022/05/06 15:50:32;;;;;;;4.88;2.60;;;;;;;;;;10367957;28;20029;-55
2022/05/06 15:55:33;;;;;;;5.38;3.00;;;;;;;;;;10378555;28;20032;-54
2022/05/06 16:00:34;;;;;;;3.63;2.58;;;;;;;;;;10366415;28;20076;-55
2022/05/06 16:05:35;;;;;;;9.80;2.75;;;;;;;;;;10371658;28;20021;-54
2022/05/06 16:10:35;;;;;;;7.45;3.03;;;;;;;;;;10367215;28;20061;-55
2022/05/06 16:15:36;;;;;;;2.85;2.30;;;;;;;;;;10379221;28;20109;-54
2022/05/06 16:20:38;;;;;;;6.30;2.42;;;;;;;;;;10376136;28;20065;-55
2022/05/06 16:25:41;;;;;;;5.85;2.50;;;;;;;;;;10367508;28;20073;-55
2022/05/06 16:30:42;;;;;;;3.65;2.67;;;;;;;;;;10373049;28;20029;-55
2022/05/06 16:41:02;;;;;;;4.82;2.25;;;;;;;;;;10395124;28;20033;-56
2022/05/06 16:46:02;;;;;;;4.93;2.60;;;;;;;;;;10392020;28;20018;-55
2022/05/06 16:51:03;;;;;;;7.80;2.40;;;;;;;;;;10365455;28;20446;-54
2022/05/06 16:56:04;;;;;;;5.57;2.70;;;;;;;;;;10372235;28;20025;-53
2022/05/06 17:01:04;;;;;;;6.13;2.10;;;;;;;;;;10355176;28;20049;-53
2022/05/06 17:06:05;;;;;;;14.10;2.45;;;;;;;;;;10381223;28;20080;-55
2022/05/06 17:11:09;;;;;;;5.03;2.58;;;;;;;;;;10401561;28;20095;-54
2022/05/06 17:16:12;;;;;;;3.70;2.35;;;;;;;;;;10398434;28;20034;-53
2022/05/06 17:21:12;;;;;;;8.43;2.47;;;;;;;;;;10373972;28;20033;-54
2022/05/06 17:26:13;;;;;;;5.00;2.50;;;;;;;;;;10373925;28;20026;-53
2022/05/06 17:31:18;;;;;;;3.97;2.13;;;;;;;;;;10378838;28;20033;-54
2022/05/06 17:36:28;;;;;;;2.53;2.20;;;;;;;;;;10385741;28;20080;-54
2022/05/06 17:41:29;;;;;;;6.20;2.60;;;;;;;;;;10346805;28;20029;-54
2022/05/06 17:46:30;;;;;;;7.72;2.70;;;;;;;;;;10341298;28;20026;-52
2022/05/06 17:51:31;;;;;;;13.73;2.63;;;;;;;;;;10333522;28;20105;-54
2022/05/06 17:56:35;;;;;;;8.60;2.78;;;;;;;;;;10334282;28;20125;-54
2022/05/06 18:01:37;;;;;;;5.32;2.90;;;;;;;;;;10336509;28;20038;-54
2022/05/06 18:06:37;;;;;;;7.82;2.70;;;;;;;;;;10363940;28;20076;-52
2022/05/06 18:11:38;;;;;;;6.03;3.05;;;;;;;;;;10367195;28;20061;-54
2022/05/06 18:16:38;;;;;;;5.50;3.22;;;;;;;;;;10361573;28;20062;-52
2022/05/06 18:21:39;;;;;;;11.10;3.63;;;;;;;;;;10356263;28;20482;-54
2022/05/06 18:26:41;;;;;;;7.10;3.08;;;;;;;;;;10363975;28;20037;-52
2022/05/06 18:37:00;;;;;;;4.32;3.03;;;;;;;;;;10369188;28;20026;-54
2022/05/06 18:42:01;;;;;;;8.13;3.30;;;;;;;;;;10369184;28;20030;-54
2022/05/06 18:47:02;;;;;;;5.05;4.30;;;;;;;;;;10356880;28;20041;-53
2022/05/06 18:52:03;;;;;;;5.05;3.30;;;;;;;;;;10370017;28;20030;-54
2022/05/06 18:57:05;;;;;;;4.15;3.28;;;;;;;;;;10367493;28;20041;-51
2022/05/06 19:02:06;;;;;;;19.00;4.47;;;;;;;;;;10361583;28;20132;-50
2022/05/06 19:07:06;;;;;;;10.27;4.50;;;;;;;;;;10366004;28;20105;-49
2022/05/06 19:12:08;;;;;;;25.75;4.15;;;;;;;;;;10365834;28;20056;-49
2022/05/06 19:17:08;;;;;;;24.10;5.03;;;;;;;;;;10365966;28;20077;-49
2022/05/06 19:27:30;;;;;;;16.23;4.10;;;;;;;;;;10365060;28;20401;-49
2022/05/06 19:32:30;;;;;;;10.88;4.15;;;;;;;;;;10359746;28;20025;-51
2022/05/06 19:37:31;;;;;;;10.82;4.07;;;;;;;;;;10353631;28;20049;-49
2022/05/06 19:42:31;;;;;;;13.05;4.10;;;;;;;;;;10366430;28;20119;-49
2022/05/06 19:47:32;;;;;;;9.13;4.10;;;;;;;;;;10365406;28;20105;-51
2022/05/06 19:57:53;;;;;;;8.40;3.13;;;;;;;;;;10354111;28;20444;-52
2022/05/06 20:02:54;;;;;;;13.98;3.70;;;;;;;;;;10365175;28;20034;-51
2022/05/06 20:08:03;;;;;;;7.13;3.35;;;;;;;;;;10358368;28;20030;-50
2022/05/06 20:13:03;;;;;;;8.80;3.53;;;;;;;;;;10363020;28;20029;-52
2022/05/06 20:18:04;;;;;;;9.05;3.10;;;;;;;;;;10350588;28;20089;-50
2022/05/06 20:23:05;;;;;;;10.45;3.90;;;;;;;;;;10347710;28;20030;-49
2022/05/06 20:28:06;;;;;;;9.82;3.33;;;;;;;;;;10346726;28;20469;-49
2022/05/06 20:33:07;;;;;;;9.48;3.30;;;;;;;;;;10371591;28;20390;-52
2022/05/06 20:38:08;;;;;;;9.05;3.00;;;;;;;;;;10369847;28;20026;-50
2022/05/06 20:43:08;;;;;;;6.30;2.80;;;;;;;;;;10373399;28;20492;-49
2022/05/06 20:48:09;;;;;;;10.85;3.70;;;;;;;;;;10352757;28;20470;-49
2022/05/06 20:53:09;;;;;;;13.88;3.67;;;;;;;;;;10336181;28;20092;-49
2022/05/06 21:03:29;;;;;;;25.20;4.13;;;;;;;;;;10350536;28;20037;-50
2022/05/06 21:13:55;;;;;;;18.15;3.90;;;;;;;;;;10356857;28;20038;-49
2022/05/06 21:18:57;;;;;;;19.35;4.22;;;;;;;;;;10368796;28;20068;-50
2022/05/06 21:23:58;;;;;;;18.40;4.22;;;;;;;;;;10357666;28;20056;-52
2022/05/06 21:28:58;;;;;;;20.55;3.88;;;;;;;;;;10350218;28;20471;-49
2022/05/06 21:33:59;;;;;;;14.27;5.85;;;;;;;;;;10337809;28;20504;-50
2022/05/06 21:39:00;;;;;;;20.23;6.53;;;;;;;;;;10365209;28;20111;-53
2022/05/06 21:44:00;;;;;;;27.95;6.32;;;;;;;;;;10367435;28;20037;-52
2022/05/06 21:49:01;;;;;;;17.67;7.05;;;;;;;;;;10368416;28;20163;-53
2022/05/06 21:54:01;;;;;;;22.33;6.07;;;;;;;;;;10336128;28;20033;-51
2022/05/06 21:59:02;;;;;;;13.15;4.97;;;;;;;;;;10334126;28;20037;-54
2022/05/06 22:04:03;;;;;;;22.42;5.88;;;;;;;;;;10368415;28;20030;-53
2022/05/06 22:09:04;;;;;;;15.45;5.10;;;;;;;;;;10371656;28;20568;-52
2022/05/06 22:14:04;;;;;;;17.38;5.32;;;;;;;;;;10370578;28;20397;-51
2022/05/06 22:19:05;;;;;;;17.67;4.95;;;;;;;;;;10371355;28;20121;-53
2022/05/06 22:24:06;;;;;;;14.77;5.15;;;;;;;;;;10370010;28;20040;-53
2022/05/06 22:29:07;;;;;;;11.18;4.03;;;;;;;;;;10367390;28;20057;-53
2022/05/06 22:34:27;;;;;;;13.18;4.40;;;;;;;;;;10360940;28;20165;-49
2022/05/06 22:39:27;;;;;;;17.83;4.47;;;;;;;;;;10369614;28;20161;-56
2022/05/06 22:49:48;;;;;;;25.73;4.93;;;;;;;;;;10364484;28;20493;-57
2022/05/06 22:54:48;;;;;;;10.73;3.97;;;;;;;;;;10368867;28;20045;-57
2022/05/06 22:59:49;;;;;;;24.58;4.63;;;;;;;;;;10355641;28;20481;-57
2022/05/06 23:04:50;;;;;;;18.02;4.05;;;;;;;;;;10369603;28;20030;-55
2022/05/06 23:09:50;;;;;;;17.20;4.10;;;;;;;;;;10369287;28;20096;-55
2022/05/06 23:14:51;;;;;;;15.57;4.07;;;;;;;;;;10363980;28;20030;-56
2022/05/06 23:19:52;;;;;;;14.07;4.38;;;;;;;;;;10368893;28;20533;-56
2022/05/06 23:24:52;;;;;;;15.13;4.00;;;;;;;;;;10342983;28;20074;-57
2022/05/06 23:29:53;;;;;;;12.48;4.38;;;;;;;;;;10328250;28;20038;-57
2022/05/06 23:34:53;;;;;;;21.05;4.50;;;;;;;;;;10338091;28;20034;-57
2022/05/06 23:39:56;;;;;;;15.95;4.03;;;;;;;;;;10330700;28;20674;-57
2022/05/06 23:45:00;;;;;;;17.65;3.80;;;;;;;;;;10353413;28;20029;-57
2022/05/06 23:50:01;;;;;;;12.20;3.53;;;;;;;;;;10328682;28;20034;-57
2022/05/06 23:55:02;;;;;;;14.48;4.28;;;;;;;;;;10358134;28;20061;-56
